sensor_id;sensor_type;location;lat;lon;timestamp;temperature;humidity
34766;DHT22;20984;43.508;1.504;2023-10-13T00:00:26;18.20;99.90
34766;DHT22;20984;43.508;1.504;2023-10-13T00:02:58;18.20;99.90
34766;DHT22;20984;43.508;1.504;2023-10-13T00:05:29;18.20;99.90
34766;DHT22;20984;43.508;1.504;2023-10-13T00:07:59;18.20;99.90
34766;DHT22;20984;43.508;1.504;2023-10-13T00:10:28;18.20;99.90
34766;DHT22;20984;43.508;1.504;2023-10-13T00:12:54;18.20;99.90
34766;DHT22;20984;43.508;1.504;2023-10-13T00:15:27;18.20;99.90
34766;DHT22;20984;43.508;1.504;2023-10-13T00:17:53;18.10;99.90
34766;DHT22;20984;43.508;1.504;2023-10-13T00:20:21;18.00;99.90
34766;DHT22;20984;43.508;1.504;2023-10-13T00:23:03;17.90;99.90
34766;DHT22;20984;43.508;1.504;2023-10-13T00:25:28;17.80;99.90
34766;DHT22;20984;43.508;1.504;2023-10-13T00:28:05;17.70;99.90
34766;DHT22;20984;43.508;1.504;2023-10-13T00:30:34;17.60;99.90
34766;DHT22;20984;43.508;1.504;2023-10-13T00:32:59;17.50;99.90
34766;DHT22;20984;43.508;1.504;2023-10-13T00:35:25;17.50;99.90
34766;DHT22;20984;43.508;1.504;2023-10-13T00:37:56;17.40;99.90
34766;DHT22;20984;43.508;1.504;2023-10-13T00:40:29;17.40;99.90
34766;DHT22;20984;43.508;1.504;2023-10-13T00:42:55;17.50;99.90
34766;DHT22;20984;43.508;1.504;2023-10-13T00:45:30;17.50;99.90
34766;DHT22;20984;43.508;1.504;2023-10-13T00:47:56;17.50;99.90
34766;DHT22;20984;43.508;1.504;2023-10-13T00:50:23;17.40;99.90
34766;DHT22;20984;43.508;1.504;2023-10-13T00:52:49;17.40;99.90
34766;DHT22;20984;43.508;1.504;2023-10-13T00:55:19;17.40;99.90
34766;DHT22;20984;43.508;1.504;2023-10-13T00:57:54;17.30;99.90
34766;DHT22;20984;43.508;1.504;2023-10-13T01:00:22;17.30;99.90
34766;DHT22;20984;43.508;1.504;2023-10-13T01:02:54;17.40;99.90
34766;DHT22;20984;43.508;1.504;2023-10-13T01:05:25;17.30;99.90
34766;DHT22;20984;43.508;1.504;2023-10-13T01:07:51;17.40;99.90
34766;DHT22;20984;43.508;1.504;2023-10-13T01:10:20;17.40;99.90
34766;DHT22;20984;43.508;1.504;2023-10-13T01:12:51;17.40;99.90
34766;DHT22;20984;43.508;1.504;2023-10-13T01:15:18;17.50;99.90
34766;DHT22;20984;43.508;1.504;2023-10-13T01:17:46;17.50;99.90
34766;DHT22;20984;43.508;1.504;2023-10-13T01:20:12;17.60;99.90
34766;DHT22;20984;43.508;1.504;2023-10-13T01:22:46;17.50;99.90
34766;DHT22;20984;43.508;1.504;2023-10-13T01:25:25;17.60;99.90
34766;DHT22;20984;43.508;1.504;2023-10-13T01:27:53;17.60;99.90
34766;DHT22;20984;43.508;1.504;2023-10-13T01:30:19;17.60;99.90
34766;DHT22;20984;43.508;1.504;2023-10-13T01:32:52;17.50;99.90
34766;DHT22;20984;43.508;1.504;2023-10-13T01:35:19;17.50;99.90
34766;DHT22;20984;43.508;1.504;2023-10-13T01:37:50;17.40;99.90
34766;DHT22;20984;43.508;1.504;2023-10-13T01:40:16;17.50;99.90
34766;DHT22;20984;43.508;1.504;2023-10-13T01:42:47;17.50;99.90
34766;DHT22;20984;43.508;1.504;2023-10-13T01:45:23;17.50;99.90
34766;DHT22;20984;43.508;1.504;2023-10-13T01:47:54;17.50;99.90
34766;DHT22;20984;43.508;1.504;2023-10-13T01:50:20;17.50;99.90
34766;DHT22;20984;43.508;1.504;2023-10-13T01:52:55;17.40;99.90
34766;DHT22;20984;43.508;1.504;2023-10-13T01:55:40;17.30;99.90
34766;DHT22;20984;43.508;1.504;2023-10-13T01:58:11;17.30;99.90
34766;DHT22;20984;43.508;1.504;2023-10-13T02:00:41;17.30;99.90
34766;DHT22;20984;43.508;1.504;2023-10-13T02:03:08;17.40;99.90
34766;DHT22;20984;43.508;1.504;2023-10-13T02:05:40;17.30;99.90
34766;DHT22;20984;43.508;1.504;2023-10-13T02:08:08;17.20;99.90
34766;DHT22;20984;43.508;1.504;2023-10-13T02:10:42;17.10;99.90
34766;DHT22;20984;43.508;1.504;2023-10-13T02:13:11;17.10;99.90
34766;DHT22;20984;43.508;1.504;2023-10-13T02:15:40;17.00;99.90
34766;DHT22;20984;43.508;1.504;2023-10-13T02:18:08;17.10;99.90
34766;DHT22;20984;43.508;1.504;2023-10-13T02:20:34;17.10;99.90
34766;DHT22;20984;43.508;1.504;2023-10-13T02:23:06;17.00;99.90
34766;DHT22;20984;43.508;1.504;2023-10-13T02:25:36;17.00;99.90
34766;DHT22;20984;43.508;1.504;2023-10-13T02:28:08;17.10;99.90
34766;DHT22;20984;43.508;1.504;2023-10-13T02:30:42;17.10;99.90
34766;DHT22;20984;43.508;1.504;2023-10-13T02:33:11;17.10;99.90
34766;DHT22;20984;43.508;1.504;2023-10-13T02:35:37;17.10;99.90
34766;DHT22;20984;43.508;1.504;2023-10-13T02:38:19;17.10;99.90
34766;DHT22;20984;43.508;1.504;2023-10-13T02:40:52;17.10;99.90
34766;DHT22;20984;43.508;1.504;2023-10-13T02:43:20;17.20;99.90
34766;DHT22;20984;43.508;1.504;2023-10-13T02:45:53;17.10;99.90
34766;DHT22;20984;43.508;1.504;2023-10-13T02:48:24;17.10;99.90
34766;DHT22;20984;43.508;1.504;2023-10-13T02:50:59;17.20;99.90
34766;DHT22;20984;43.508;1.504;2023-10-13T02:53:32;17.20;99.90
34766;DHT22;20984;43.508;1.504;2023-10-13T02:55:57;17.20;99.90
34766;DHT22;20984;43.508;1.504;2023-10-13T02:58:30;17.20;99.90
34766;DHT22;20984;43.508;1.504;2023-10-13T03:01:09;17.30;99.90
34766;DHT22;20984;43.508;1.504;2023-10-13T03:03:51;17.30;99.90
34766;DHT22;20984;43.508;1.504;2023-10-13T03:06:20;17.30;99.90
34766;DHT22;20984;43.508;1.504;2023-10-13T03:08:48;17.30;99.90
34766;DHT22;20984;43.508;1.504;2023-10-13T03:11:14;17.30;99.90
34766;DHT22;20984;43.508;1.504;2023-10-13T03:13:40;17.30;99.90
34766;DHT22;20984;43.508;1.504;2023-10-13T03:16:11;17.30;99.90
34766;DHT22;20984;43.508;1.504;2023-10-13T03:18:36;17.30;99.90
34766;DHT22;20984;43.508;1.504;2023-10-13T03:21:03;17.40;99.90
34766;DHT22;20984;43.508;1.504;2023-10-13T03:23:29;17.50;99.90
34766;DHT22;20984;43.508;1.504;2023-10-13T03:26:10;17.50;99.90
34766;DHT22;20984;43.508;1.504;2023-10-13T03:28:36;17.60;99.90
34766;DHT22;20984;43.508;1.504;2023-10-13T03:31:03;17.60;99.90
34766;DHT22;20984;43.508;1.504;2023-10-13T03:33:29;17.60;99.90
34766;DHT22;20984;43.508;1.504;2023-10-13T03:35:58;17.60;99.90
34766;DHT22;20984;43.508;1.504;2023-10-13T03:38:31;17.60;99.90
34766;DHT22;20984;43.508;1.504;2023-10-13T03:41:01;17.60;99.90
34766;DHT22;20984;43.508;1.504;2023-10-13T03:43:37;17.60;99.90
34766;DHT22;20984;43.508;1.504;2023-10-13T03:46:32;17.60;99.90
34766;DHT22;20984;43.508;1.504;2023-10-13T03:49:01;17.70;99.90
34766;DHT22;20984;43.508;1.504;2023-10-13T03:51:27;17.70;99.90
34766;DHT22;20984;43.508;1.504;2023-10-13T03:53:56;17.80;99.90
34766;DHT22;20984;43.508;1.504;2023-10-13T03:56:23;17.70;99.90
34766;DHT22;20984;43.508;1.504;2023-10-13T03:58:52;17.70;99.90
34766;DHT22;20984;43.508;1.504;2023-10-13T04:01:19;17.70;99.90
34766;DHT22;20984;43.508;1.504;2023-10-13T04:03:50;17.70;99.90
34766;DHT22;20984;43.508;1.504;2023-10-13T04:06:23;17.70;99.90
34766;DHT22;20984;43.508;1.504;2023-10-13T04:09:08;17.70;99.90
34766;DHT22;20984;43.508;1.504;2023-10-13T04:11:53;17.60;99.90
34766;DHT22;20984;43.508;1.504;2023-10-13T04:14:30;17.60;99.90
34766;DHT22;20984;43.508;1.504;2023-10-13T04:17:15;17.60;99.90
34766;DHT22;20984;43.508;1.504;2023-10-13T04:19:41;17.70;99.90
34766;DHT22;20984;43.508;1.504;2023-10-13T04:22:25;17.60;99.90
34766;DHT22;20984;43.508;1.504;2023-10-13T04:25:14;17.70;99.90
34766;DHT22;20984;43.508;1.504;2023-10-13T04:28:18;17.70;99.90
34766;DHT22;20984;43.508;1.504;2023-10-13T04:31:00;17.80;99.90
34766;DHT22;20984;43.508;1.504;2023-10-13T04:33:37;17.80;99.90
34766;DHT22;20984;43.508;1.504;2023-10-13T04:36:17;17.90;99.90
34766;DHT22;20984;43.508;1.504;2023-10-13T04:39:02;17.80;99.90
34766;DHT22;20984;43.508;1.504;2023-10-13T04:41:34;17.90;99.90
34766;DHT22;20984;43.508;1.504;2023-10-13T04:44:08;17.80;99.90
34766;DHT22;20984;43.508;1.504;2023-10-13T04:46:52;17.80;99.90
34766;DHT22;20984;43.508;1.504;2023-10-13T04:49:24;17.90;99.90
34766;DHT22;20984;43.508;1.504;2023-10-13T04:52:10;17.80;99.90
34766;DHT22;20984;43.508;1.504;2023-10-13T04:54:40;17.90;99.90
34766;DHT22;20984;43.508;1.504;2023-10-13T05:00:16;18.00;99.90
34766;DHT22;20984;43.508;1.504;2023-10-13T05:02:45;18.00;99.90
34766;DHT22;20984;43.508;1.504;2023-10-13T05:05:31;18.00;99.90
34766;DHT22;20984;43.508;1.504;2023-10-13T05:08:15;18.00;99.90
34766;DHT22;20984;43.508;1.504;2023-10-13T05:11:03;18.00;99.90
34766;DHT22;20984;43.508;1.504;2023-10-13T05:13:47;18.10;99.90
34766;DHT22;20984;43.508;1.504;2023-10-13T05:16:31;18.10;99.90
34766;DHT22;20984;43.508;1.504;2023-10-13T05:19:16;18.10;99.90
34766;DHT22;20984;43.508;1.504;2023-10-13T05:22:10;18.00;99.90
34766;DHT22;20984;43.508;1.504;2023-10-13T05:24:55;18.00;99.90
34766;DHT22;20984;43.508;1.504;2023-10-13T05:27:40;17.90;99.90
34766;DHT22;20984;43.508;1.504;2023-10-13T05:30:24;17.90;99.90
34766;DHT22;20984;43.508;1.504;2023-10-13T05:33:28;18.00;99.90
34766;DHT22;20984;43.508;1.504;2023-10-13T05:36:12;18.00;99.90
34766;DHT22;20984;43.508;1.504;2023-10-13T05:38:56;18.00;99.90
34766;DHT22;20984;43.508;1.504;2023-10-13T05:41:40;18.00;99.90
34766;DHT22;20984;43.508;1.504;2023-10-13T05:44:25;18.00;99.90
34766;DHT22;20984;43.508;1.504;2023-10-13T05:47:03;18.00;99.90
34766;DHT22;20984;43.508;1.504;2023-10-13T05:49:47;18.00;99.90
34766;DHT22;20984;43.508;1.504;2023-10-13T05:52:18;18.00;99.90
34766;DHT22;20984;43.508;1.504;2023-10-13T05:55:02;18.10;99.90
34766;DHT22;20984;43.508;1.504;2023-10-13T05:57:46;18.20;99.90
34766;DHT22;20984;43.508;1.504;2023-10-13T06:00:31;18.30;99.90
34766;DHT22;20984;43.508;1.504;2023-10-13T06:03:21;18.30;99.90
34766;DHT22;20984;43.508;1.504;2023-10-13T06:06:06;18.40;99.90
34766;DHT22;20984;43.508;1.504;2023-10-13T06:08:51;18.30;99.90
34766;DHT22;20984;43.508;1.504;2023-10-13T06:11:35;18.30;99.90
34766;DHT22;20984;43.508;1.504;2023-10-13T06:14:19;18.40;99.90
34766;DHT22;20984;43.508;1.504;2023-10-13T06:17:03;18.40;99.90
34766;DHT22;20984;43.508;1.504;2023-10-13T06:19:47;18.40;99.90
34766;DHT22;20984;43.508;1.504;2023-10-13T06:22:32;18.50;99.90
34766;DHT22;20984;43.508;1.504;2023-10-13T06:25:16;18.50;99.90
34766;DHT22;20984;43.508;1.504;2023-10-13T06:28:00;18.70;99.90
34766;DHT22;20984;43.508;1.504;2023-10-13T06:30:53;18.80;99.90
34766;DHT22;20984;43.508;1.504;2023-10-13T06:33:21;18.80;99.90
34766;DHT22;20984;43.508;1.504;2023-10-13T06:35:57;18.80;99.90
34766;DHT22;20984;43.508;1.504;2023-10-13T06:38:23;18.90;99.90
34766;DHT22;20984;43.508;1.504;2023-10-13T06:40:49;19.00;99.90
34766;DHT22;20984;43.508;1.504;2023-10-13T06:43:16;19.10;99.90
34766;DHT22;20984;43.508;1.504;2023-10-13T06:45:43;19.00;99.90
34766;DHT22;20984;43.508;1.504;2023-10-13T06:48:09;19.10;99.90
34766;DHT22;20984;43.508;1.504;2023-10-13T06:50:39;19.10;99.90
34766;DHT22;20984;43.508;1.504;2023-10-13T06:53:07;19.20;99.90
34766;DHT22;20984;43.508;1.504;2023-10-13T06:55:32;19.20;99.90
34766;DHT22;20984;43.508;1.504;2023-10-13T06:58:02;19.30;99.90
34766;DHT22;20984;43.508;1.504;2023-10-13T07:00:27;19.30;99.90
34766;DHT22;20984;43.508;1.504;2023-10-13T07:02:55;19.30;99.90
34766;DHT22;20984;43.508;1.504;2023-10-13T07:05:37;19.30;99.90
34766;DHT22;20984;43.508;1.504;2023-10-13T07:08:04;19.30;99.90
34766;DHT22;20984;43.508;1.504;2023-10-13T07:10:30;19.30;99.90
34766;DHT22;20984;43.508;1.504;2023-10-13T07:12:55;19.40;99.90
34766;DHT22;20984;43.508;1.504;2023-10-13T07:15:25;19.40;99.90
34766;DHT22;20984;43.508;1.504;2023-10-13T07:17:53;19.50;99.90
34766;DHT22;20984;43.508;1.504;2023-10-13T07:20:27;19.50;99.90
34766;DHT22;20984;43.508;1.504;2023-10-13T07:22:52;19.60;99.90
34766;DHT22;20984;43.508;1.504;2023-10-13T07:25:27;19.70;99.90
34766;DHT22;20984;43.508;1.504;2023-10-13T07:27:58;19.70;99.90
34766;DHT22;20984;43.508;1.504;2023-10-13T07:30:24;19.80;99.90
34766;DHT22;20984;43.508;1.504;2023-10-13T07:32:52;19.90;99.90
34766;DHT22;20984;43.508;1.504;2023-10-13T07:35:18;20.00;99.90
34766;DHT22;20984;43.508;1.504;2023-10-13T07:37:52;20.00;99.90
34766;DHT22;20984;43.508;1.504;2023-10-13T07:40:19;20.10;99.90
34766;DHT22;20984;43.508;1.504;2023-10-13T07:43:04;20.10;99.90
34766;DHT22;20984;43.508;1.504;2023-10-13T07:45:35;20.20;99.90
34766;DHT22;20984;43.508;1.504;2023-10-13T07:48:04;20.30;99.90
34766;DHT22;20984;43.508;1.504;2023-10-13T07:50:41;20.30;99.90
34766;DHT22;20984;43.508;1.504;2023-10-13T07:53:06;20.30;99.90
34766;DHT22;20984;43.508;1.504;2023-10-13T07:55:45;20.20;99.90
34766;DHT22;20984;43.508;1.504;2023-10-13T07:58:12;20.30;99.90
34766;DHT22;20984;43.508;1.504;2023-10-13T08:00:39;20.20;99.90
34766;DHT22;20984;43.508;1.504;2023-10-13T08:03:10;20.30;99.90
34766;DHT22;20984;43.508;1.504;2023-10-13T08:05:45;20.40;99.90
34766;DHT22;20984;43.508;1.504;2023-10-13T08:08:24;20.50;99.90
34766;DHT22;20984;43.508;1.504;2023-10-13T08:11:01;20.50;99.90
34766;DHT22;20984;43.508;1.504;2023-10-13T08:13:35;20.50;99.90
34766;DHT22;20984;43.508;1.504;2023-10-13T08:16:02;20.60;99.90
34766;DHT22;20984;43.508;1.504;2023-10-13T08:18:35;20.70;99.90
34766;DHT22;20984;43.508;1.504;2023-10-13T08:21:04;20.70;99.90
34766;DHT22;20984;43.508;1.504;2023-10-13T08:23:31;20.80;99.90
34766;DHT22;20984;43.508;1.504;2023-10-13T08:26:20;20.90;99.90
34766;DHT22;20984;43.508;1.504;2023-10-13T08:29:01;20.90;99.90
34766;DHT22;20984;43.508;1.504;2023-10-13T08:31:49;21.00;99.90
34766;DHT22;20984;43.508;1.504;2023-10-13T08:34:33;21.20;99.90
34766;DHT22;20984;43.508;1.504;2023-10-13T08:37:04;21.50;99.90
34766;DHT22;20984;43.508;1.504;2023-10-13T08:39:45;21.70;99.90
34766;DHT22;20984;43.508;1.504;2023-10-13T08:45:20;21.80;99.90
34766;DHT22;20984;43.508;1.504;2023-10-13T08:48:07;21.80;99.90
34766;DHT22;20984;43.508;1.504;2023-10-13T08:50:51;21.70;99.90
34766;DHT22;20984;43.508;1.504;2023-10-13T08:53:27;21.70;99.90
34766;DHT22;20984;43.508;1.504;2023-10-13T08:56:05;21.90;99.90
34766;DHT22;20984;43.508;1.504;2023-10-13T09:01:25;22.20;99.90
34766;DHT22;20984;43.508;1.504;2023-10-13T09:04:09;22.10;99.90
34766;DHT22;20984;43.508;1.504;2023-10-13T09:09:15;22.30;99.90
34766;DHT22;20984;43.508;1.504;2023-10-13T09:12:02;22.30;99.90
34766;DHT22;20984;43.508;1.504;2023-10-13T09:14:37;22.30;99.90
34766;DHT22;20984;43.508;1.504;2023-10-13T09:17:22;22.20;99.90
34766;DHT22;20984;43.508;1.504;2023-10-13T09:20:04;22.20;99.90
34766;DHT22;20984;43.508;1.504;2023-10-13T09:22:52;22.20;99.90
34766;DHT22;20984;43.508;1.504;2023-10-13T09:25:29;22.30;99.90
34766;DHT22;20984;43.508;1.504;2023-10-13T09:28:14;22.50;99.90
34766;DHT22;20984;43.508;1.504;2023-10-13T09:30:46;22.50;99.90
34766;DHT22;20984;43.508;1.504;2023-10-13T09:33:12;22.40;99.90
34766;DHT22;20984;43.508;1.504;2023-10-13T09:35:46;22.60;99.90
34766;DHT22;20984;43.508;1.504;2023-10-13T09:38:15;22.70;99.90
34766;DHT22;20984;43.508;1.504;2023-10-13T09:40:41;22.80;99.90
34766;DHT22;20984;43.508;1.504;2023-10-13T09:43:12;23.00;99.90
34766;DHT22;20984;43.508;1.504;2023-10-13T09:45:40;23.20;99.90
34766;DHT22;20984;43.508;1.504;2023-10-13T09:48:12;23.10;99.90
34766;DHT22;20984;43.508;1.504;2023-10-13T09:50:48;23.10;99.90
34766;DHT22;20984;43.508;1.504;2023-10-13T09:53:17;23.00;99.90
34766;DHT22;20984;43.508;1.504;2023-10-13T09:55:47;23.00;99.90
34766;DHT22;20984;43.508;1.504;2023-10-13T09:58:14;23.10;99.90
34766;DHT22;20984;43.508;1.504;2023-10-13T10:00:46;23.10;99.90
34766;DHT22;20984;43.508;1.504;2023-10-13T10:03:14;23.10;99.90
34766;DHT22;20984;43.508;1.504;2023-10-13T10:05:41;23.10;99.90
34766;DHT22;20984;43.508;1.504;2023-10-13T10:08:23;23.30;99.90
34766;DHT22;20984;43.508;1.504;2023-10-13T10:10:56;23.50;99.90
34766;DHT22;20984;43.508;1.504;2023-10-13T10:13:27;23.70;99.90
34766;DHT22;20984;43.508;1.504;2023-10-13T10:16:00;23.80;99.90
34766;DHT22;20984;43.508;1.504;2023-10-13T10:18:28;24.00;99.90
34766;DHT22;20984;43.508;1.504;2023-10-13T10:21:06;24.00;99.90
34766;DHT22;20984;43.508;1.504;2023-10-13T10:23:38;24.10;99.90
34766;DHT22;20984;43.508;1.504;2023-10-13T10:26:13;24.20;99.90
34766;DHT22;20984;43.508;1.504;2023-10-13T10:28:50;24.10;99.90
34766;DHT22;20984;43.508;1.504;2023-10-13T10:31:15;23.90;99.90
34766;DHT22;20984;43.508;1.504;2023-10-13T10:33:45;23.90;99.90
34766;DHT22;20984;43.508;1.504;2023-10-13T10:36:15;23.80;99.90
34766;DHT22;20984;43.508;1.504;2023-10-13T10:38:54;23.80;99.90
34766;DHT22;20984;43.508;1.504;2023-10-13T10:41:30;23.90;99.90
34766;DHT22;20984;43.508;1.504;2023-10-13T10:44:16;24.00;99.90
34766;DHT22;20984;43.508;1.504;2023-10-13T10:46:42;24.00;99.90
34766;DHT22;20984;43.508;1.504;2023-10-13T10:49:20;24.10;99.90
34766;DHT22;20984;43.508;1.504;2023-10-13T10:51:57;24.10;99.90
34766;DHT22;20984;43.508;1.504;2023-10-13T10:54:23;24.10;99.90
34766;DHT22;20984;43.508;1.504;2023-10-13T10:56:55;24.10;99.90
34766;DHT22;20984;43.508;1.504;2023-10-13T10:59:21;24.10;99.90
34766;DHT22;20984;43.508;1.504;2023-10-13T11:01:50;24.10;99.90
34766;DHT22;20984;43.508;1.504;2023-10-13T11:04:18;24.20;99.90
34766;DHT22;20984;43.508;1.504;2023-10-13T11:06:56;24.40;99.90
34766;DHT22;20984;43.508;1.504;2023-10-13T11:09:31;24.40;99.90
34766;DHT22;20984;43.508;1.504;2023-10-13T11:14:39;24.60;99.90
34766;DHT22;20984;43.508;1.504;2023-10-13T11:17:05;24.80;99.90
34766;DHT22;20984;43.508;1.504;2023-10-13T11:19:39;24.80;99.90
34766;DHT22;20984;43.508;1.504;2023-10-13T11:22:19;24.80;99.90
34766;DHT22;20984;43.508;1.504;2023-10-13T11:25:04;24.80;99.90
34766;DHT22;20984;43.508;1.504;2023-10-13T11:27:37;24.90;99.90
34766;DHT22;20984;43.508;1.504;2023-10-13T11:30:22;25.00;99.90
34766;DHT22;20984;43.508;1.504;2023-10-13T11:33:00;25.00;99.90
34766;DHT22;20984;43.508;1.504;2023-10-13T11:35:29;25.00;99.90
34766;DHT22;20984;43.508;1.504;2023-10-13T11:38:13;25.00;99.90
34766;DHT22;20984;43.508;1.504;2023-10-13T11:40:39;24.90;99.90
34766;DHT22;20984;43.508;1.504;2023-10-13T11:43:23;25.00;99.90
34766;DHT22;20984;43.508;1.504;2023-10-13T11:45:50;25.20;99.90
34766;DHT22;20984;43.508;1.504;2023-10-13T11:48:41;25.30;99.90
34766;DHT22;20984;43.508;1.504;2023-10-13T11:51:08;25.30;99.90
34766;DHT22;20984;43.508;1.504;2023-10-13T11:53:34;25.20;99.90
34766;DHT22;20984;43.508;1.504;2023-10-13T11:56:04;25.00;99.90
34766;DHT22;20984;43.508;1.504;2023-10-13T11:58:34;24.80;99.90
34766;DHT22;20984;43.508;1.504;2023-10-13T12:01:00;24.70;99.90
34766;DHT22;20984;43.508;1.504;2023-10-13T12:03:41;24.70;99.90
34766;DHT22;20984;43.508;1.504;2023-10-13T12:06:26;24.80;99.90
34766;DHT22;20984;43.508;1.504;2023-10-13T12:09:04;24.80;99.90
34766;DHT22;20984;43.508;1.504;2023-10-13T12:11:42;24.90;99.90
34766;DHT22;20984;43.508;1.504;2023-10-13T12:14:17;25.10;99.90
34766;DHT22;20984;43.508;1.504;2023-10-13T12:16:45;25.30;99.90
34766;DHT22;20984;43.508;1.504;2023-10-13T12:19:17;25.40;99.90
34766;DHT22;20984;43.508;1.504;2023-10-13T12:21:43;25.40;99.90
34766;DHT22;20984;43.508;1.504;2023-10-13T12:24:09;25.30;99.90
34766;DHT22;20984;43.508;1.504;2023-10-13T12:26:46;25.30;99.90
34766;DHT22;20984;43.508;1.504;2023-10-13T12:29:12;25.30;99.90
34766;DHT22;20984;43.508;1.504;2023-10-13T12:31:48;25.40;99.90
34766;DHT22;20984;43.508;1.504;2023-10-13T12:34:26;25.50;99.90
34766;DHT22;20984;43.508;1.504;2023-10-13T12:37:12;25.60;99.90
34766;DHT22;20984;43.508;1.504;2023-10-13T12:39:57;25.70;99.90
34766;DHT22;20984;43.508;1.504;2023-10-13T12:42:41;25.60;99.90
34766;DHT22;20984;43.508;1.504;2023-10-13T12:45:26;25.60;99.90
34766;DHT22;20984;43.508;1.504;2023-10-13T12:48:10;25.70;99.90
34766;DHT22;20984;43.508;1.504;2023-10-13T12:50:54;25.80;99.90
34766;DHT22;20984;43.508;1.504;2023-10-13T12:53:33;26.00;99.90
34766;DHT22;20984;43.508;1.504;2023-10-13T12:55:59;26.00;99.90
34766;DHT22;20984;43.508;1.504;2023-10-13T12:58:24;26.00;99.90
34766;DHT22;20984;43.508;1.504;2023-10-13T13:00:52;25.80;99.90
34766;DHT22;20984;43.508;1.504;2023-10-13T13:03:26;25.90;99.90
34766;DHT22;20984;43.508;1.504;2023-10-13T13:05:54;25.80;99.90
34766;DHT22;20984;43.508;1.504;2023-10-13T13:08:21;25.90;99.90
34766;DHT22;20984;43.508;1.504;2023-10-13T13:10:50;25.80;99.90
34766;DHT22;20984;43.508;1.504;2023-10-13T13:13:15;25.80;99.90
34766;DHT22;20984;43.508;1.504;2023-10-13T13:15:42;25.70;99.90
34766;DHT22;20984;43.508;1.504;2023-10-13T13:18:08;25.70;99.90
34766;DHT22;20984;43.508;1.504;2023-10-13T13:20:37;25.60;99.90
34766;DHT22;20984;43.508;1.504;2023-10-13T13:23:04;25.60;99.90
34766;DHT22;20984;43.508;1.504;2023-10-13T13:25:30;25.60;99.90
34766;DHT22;20984;43.508;1.504;2023-10-13T13:27:57;25.80;99.90
34766;DHT22;20984;43.508;1.504;2023-10-13T13:30:25;26.00;99.90
34766;DHT22;20984;43.508;1.504;2023-10-13T13:32:58;26.30;99.90
34766;DHT22;20984;43.508;1.504;2023-10-13T13:35:29;26.50;99.90
34766;DHT22;20984;43.508;1.504;2023-10-13T13:38:00;26.50;99.90
34766;DHT22;20984;43.508;1.504;2023-10-13T13:40:38;26.50;99.90
34766;DHT22;20984;43.508;1.504;2023-10-13T13:43:04;26.60;99.90
34766;DHT22;20984;43.508;1.504;2023-10-13T13:45:29;26.60;99.90
34766;DHT22;20984;43.508;1.504;2023-10-13T13:47:57;26.70;99.90
34766;DHT22;20984;43.508;1.504;2023-10-13T13:50:27;26.70;99.90
34766;DHT22;20984;43.508;1.504;2023-10-13T13:52:54;26.60;99.90
34766;DHT22;20984;43.508;1.504;2023-10-13T13:55:24;26.50;99.90
34766;DHT22;20984;43.508;1.504;2023-10-13T13:57:57;26.60;99.90
34766;DHT22;20984;43.508;1.504;2023-10-13T14:00:22;26.50;99.90
34766;DHT22;20984;43.508;1.504;2023-10-13T14:03:04;26.30;99.90
34766;DHT22;20984;43.508;1.504;2023-10-13T14:05:30;26.30;99.90
34766;DHT22;20984;43.508;1.504;2023-10-13T14:07:56;26.10;99.90
34766;DHT22;20984;43.508;1.504;2023-10-13T14:10:22;26.00;99.90
34766;DHT22;20984;43.508;1.504;2023-10-13T14:12:57;26.10;99.90
34766;DHT22;20984;43.508;1.504;2023-10-13T14:15:34;26.10;99.90
34766;DHT22;20984;43.508;1.504;2023-10-13T14:18:06;26.20;99.90
34766;DHT22;20984;43.508;1.504;2023-10-13T14:20:32;26.20;99.90
34766;DHT22;20984;43.508;1.504;2023-10-13T14:23:05;26.30;99.90
34766;DHT22;20984;43.508;1.504;2023-10-13T14:25:32;26.30;99.90
34766;DHT22;20984;43.508;1.504;2023-10-13T14:28:04;26.30;99.90
34766;DHT22;20984;43.508;1.504;2023-10-13T14:30:29;26.30;99.90
34766;DHT22;20984;43.508;1.504;2023-10-13T14:32:56;26.40;99.90
34766;DHT22;20984;43.508;1.504;2023-10-13T14:35:23;26.40;99.90
34766;DHT22;20984;43.508;1.504;2023-10-13T14:37:51;26.30;99.90
34766;DHT22;20984;43.508;1.504;2023-10-13T14:40:17;26.20;99.90
34766;DHT22;20984;43.508;1.504;2023-10-13T14:42:47;26.10;99.90
34766;DHT22;20984;43.508;1.504;2023-10-13T14:45:13;26.00;99.90
34766;DHT22;20984;43.508;1.504;2023-10-13T14:47:42;25.90;99.90
34766;DHT22;20984;43.508;1.504;2023-10-13T14:50:08;25.60;99.90
34766;DHT22;20984;43.508;1.504;2023-10-13T14:52:42;25.40;99.90
34766;DHT22;20984;43.508;1.504;2023-10-13T14:55:08;25.40;99.90
34766;DHT22;20984;43.508;1.504;2023-10-13T14:57:49;25.30;99.90
34766;DHT22;20984;43.508;1.504;2023-10-13T15:00:15;25.30;99.90
34766;DHT22;20984;43.508;1.504;2023-10-13T15:02:49;25.30;99.90
34766;DHT22;20984;43.508;1.504;2023-10-13T15:05:15;25.20;99.90
34766;DHT22;20984;43.508;1.504;2023-10-13T15:07:44;25.20;99.90
34766;DHT22;20984;43.508;1.504;2023-10-13T15:10:11;25.10;99.90
34766;DHT22;20984;43.508;1.504;2023-10-13T15:12:40;25.20;99.90
34766;DHT22;20984;43.508;1.504;2023-10-13T15:15:06;25.10;99.90
34766;DHT22;20984;43.508;1.504;2023-10-13T15:17:39;25.10;99.90
34766;DHT22;20984;43.508;1.504;2023-10-13T15:20:04;25.10;99.90
34766;DHT22;20984;43.508;1.504;2023-10-13T15:22:33;25.10;99.90
34766;DHT22;20984;43.508;1.504;2023-10-13T15:25:00;25.00;99.90
34766;DHT22;20984;43.508;1.504;2023-10-13T15:27:46;24.90;99.90
34766;DHT22;20984;43.508;1.504;2023-10-13T15:30:23;24.90;99.90
34766;DHT22;20984;43.508;1.504;2023-10-13T15:32:51;24.80;99.90
34766;DHT22;20984;43.508;1.504;2023-10-13T15:35:19;24.70;99.90
34766;DHT22;20984;43.508;1.504;2023-10-13T15:37:44;24.60;99.90
34766;DHT22;20984;43.508;1.504;2023-10-13T15:40:13;24.60;99.90
34766;DHT22;20984;43.508;1.504;2023-10-13T15:42:43;24.50;99.90
34766;DHT22;20984;43.508;1.504;2023-10-13T15:45:10;24.40;99.90
34766;DHT22;20984;43.508;1.504;2023-10-13T15:47:45;24.40;99.90
34766;DHT22;20984;43.508;1.504;2023-10-13T15:50:12;24.40;99.90
34766;DHT22;20984;43.508;1.504;2023-10-13T15:52:43;24.30;99.90
34766;DHT22;20984;43.508;1.504;2023-10-13T15:55:14;24.30;99.90
34766;DHT22;20984;43.508;1.504;2023-10-13T15:57:43;24.20;99.90
34766;DHT22;20984;43.508;1.504;2023-10-13T16:00:09;24.20;99.90
34766;DHT22;20984;43.508;1.504;2023-10-13T16:02:54;24.10;99.90
34766;DHT22;20984;43.508;1.504;2023-10-13T16:05:31;24.10;99.90
34766;DHT22;20984;43.508;1.504;2023-10-13T16:08:00;24.00;99.90
34766;DHT22;20984;43.508;1.504;2023-10-13T16:10:25;23.90;99.90
34766;DHT22;20984;43.508;1.504;2023-10-13T16:12:52;23.90;99.90
34766;DHT22;20984;43.508;1.504;2023-10-13T16:15:18;23.90;99.90
34766;DHT22;20984;43.508;1.504;2023-10-13T16:17:46;23.80;99.90
34766;DHT22;20984;43.508;1.504;2023-10-13T16:20:12;23.70;99.90